Time,TemperatureF,DewpointF,PressureIn,WindDirection,WindDirectionDegrees,WindSpeedMPH,WindSpeedGustMPH,Humidity,HourlyPrecipIn,Conditions,Clouds,dailyrainin,SoftwareType,DateUTC
2013-09-30 00:06:00,62.1,56.2,29.64,NNE,22,0.0,-999.0,81,-99.99,,,0.00,Acu-Link.com,2013-09-30 05:06:00,
2013-09-30 00:22:00,61.5,56.0,29.63,NNE,22,0.0,-999.0,82,-99.99,,,0.00,Acu-Link.com,2013-09-30 05:22:00,
2013-09-30 00:37:00,61.2,56.0,29.63,NNE,22,0.0,-999.0,83,-99.99,,,0.00,Acu-Link.com,2013-09-30 05:37:00,
2013-09-30 00:52:00,61.3,56.4,29.63,WNW,292,0.0,-999.0,84,-99.99,,,0.00,Acu-Link.com,2013-09-30 05:52:00,
2013-09-30 01:08:00,60.4,55.9,29.62,NNE,22,0.0,-999.0,85,-99.99,,,0.00,Acu-Link.com,2013-09-30 06:08:00,
2013-09-30 01:23:00,60.4,55.9,29.62,NNE,22,0.0,-999.0,85,-99.99,,,0.00,Acu-Link.com,2013-09-30 06:23:00,
2013-09-30 01:38:00,60.3,55.8,29.62,NNW,337,0.0,-999.0,85,-99.99,,,0.00,Acu-Link.com,2013-09-30 06:38:00,
2013-09-30 01:54:00,60.3,55.8,29.62,NE,45,0.0,-999.0,85,-99.99,,,0.00,Acu-Link.com,2013-09-30 06:54:00,
2013-09-30 02:24:00,60.1,55.6,29.62,NNE,22,0.0,-999.0,85,-99.99,,,0.00,Acu-Link.com,2013-09-30 07:24:00,
2013-09-30 02:40:00,59.9,55.4,29.62,ENE,67,0.0,-999.0,85,-99.99,,,0.00,Acu-Link.com,2013-09-30 07:40:00,
2013-09-30 02:55:00,59.7,55.5,29.62,ENE,67,0.0,-999.0,86,-99.99,,,0.00,Acu-Link.com,2013-09-30 07:55:00,
2013-09-30 03:10:00,59.5,55.3,29.62,East,90,0.0,-999.0,86,-99.99,,,0.00,Acu-Link.com,2013-09-30 08:10:00,
2013-09-30 03:25:00,59.0,54.8,29.61,ENE,67,0.0,-999.0,86,-99.99,,,0.00,Acu-Link.com,2013-09-30 08:25:00,
2013-09-30 03:40:00,58.6,54.7,29.60,WNW,292,0.0,-999.0,87,-99.99,,,0.00,Acu-Link.com,2013-09-30 08:40:00,
2013-09-30 03:56:00,59.0,55.1,29.60,West,270,0.0,-999.0,87,-99.99,,,0.00,Acu-Link.com,2013-09-30 08:56:00,
2013-09-30 04:11:00,57.9,54.1,29.60,ESE,112,0.0,-999.0,87,-99.99,,,0.00,Acu-Link.com,2013-09-30 09:11:00,
2013-09-30 04:26:00,57.6,54.1,29.60,ESE,112,0.0,-999.0,88,-99.99,,,0.00,Acu-Link.com,2013-09-30 09:26:00,
2013-09-30 04:42:00,57.6,54.1,29.59,ESE,112,0.0,-999.0,88,-99.99,,,0.00,Acu-Link.com,2013-09-30 09:42:00,
2013-09-30 04:57:00,58.1,54.9,29.60,SE,135,0.0,-999.0,89,-99.99,,,0.00,Acu-Link.com,2013-09-30 09:57:00,
2013-09-30 05:12:00,57.2,54.0,29.60,SE,135,0.0,-999.0,89,-99.99,,,0.00,Acu-Link.com,2013-09-30 10:12:00,
2013-09-30 05:27:00,57.0,54.1,29.60,North,0,0.0,-999.0,90,-99.99,,,0.00,Acu-Link.com,2013-09-30 10:27:00,
2013-09-30 05:43:00,56.8,53.9,29.60,NNE,22,0.0,-999.0,90,-99.99,,,0.00,Acu-Link.com,2013-09-30 10:43:00,
2013-09-30 05:58:00,56.8,54.2,29.60,NNE,22,0.0,-999.0,91,-99.99,,,0.00,Acu-Link.com,2013-09-30 10:58:00,
2013-09-30 06:14:00,57.6,55.0,29.60,NNW,337,0.0,-999.0,91,-99.99,,,0.00,Acu-Link.com,2013-09-30 11:14:00,
2013-09-30 06:29:00,57.6,55.0,29.60,NNE,22,0.0,-999.0,91,-99.99,,,0.00,Acu-Link.com,2013-09-30 11:29:00,
2013-09-30 06:44:00,57.0,54.4,29.60,NNE,22,0.0,-999.0,91,-99.99,,,0.00,Acu-Link.com,2013-09-30 11:44:00,
2013-09-30 07:00:00,56.5,53.9,29.60,NE,45,0.0,-999.0,91,-99.99,,,0.00,Acu-Link.com,2013-09-30 12:00:00,
2013-09-30 07:15:00,55.2,52.9,29.61,NE,45,0.0,-999.0,92,-99.99,,,0.00,Acu-Link.com,2013-09-30 12:15:00,
2013-09-30 07:31:00,55.8,53.8,29.62,WNW,292,0.0,-999.0,93,-99.99,,,0.00,Acu-Link.com,2013-09-30 12:31:00,
2013-09-30 07:46:00,55.4,53.4,29.62,SW,225,0.0,-999.0,93,-99.99,,,0.00,Acu-Link.com,2013-09-30 12:46:00,
2013-09-30 08:01:00,55.0,53.0,29.62,NNE,22,0.0,-999.0,93,-99.99,,,0.00,Acu-Link.com,2013-09-30 13:01:00,
2013-09-30 08:17:00,56.8,54.8,29.62,North,0,0.0,-999.0,93,-99.99,,,0.00,Acu-Link.com,2013-09-30 13:17:00,
2013-09-30 08:32:00,61.9,58.9,29.61,North,0,0.0,-999.0,90,-99.99,,,0.00,Acu-Link.com,2013-09-30 13:32:00,
2013-09-30 08:47:00,68.4,60.5,29.61,North,0,0.0,-999.0,76,-99.99,,,0.00,Acu-Link.com,2013-09-30 13:47:00,
2013-09-30 09:02:00,69.4,58.4,29.61,NNE,22,0.0,-999.0,68,-99.99,,,0.00,Acu-Link.com,2013-09-30 14:02:00,
2013-09-30 09:18:00,72.1,58.3,29.61,ESE,112,0.0,-999.0,62,-99.99,,,0.00,Acu-Link.com,2013-09-30 14:18:00,
2013-09-30 09:33:00,73.4,58.2,29.61,ESE,112,2.7,-999.0,59,-99.99,,,0.00,Acu-Link.com,2013-09-30 14:33:00,
2013-09-30 09:48:00,74.5,58.3,29.61,NE,45,0.0,-999.0,57,-99.99,,,0.00,Acu-Link.com,2013-09-30 14:48:00,
2013-09-30 10:03:00,75.7,58.9,29.61,SSE,157,0.0,-999.0,56,-99.99,,,0.00,Acu-Link.com,2013-09-30 15:03:00,
2013-09-30 10:19:00,76.5,57.0,29.61,WNW,292,1.1,-999.0,51,-99.99,,,0.00,Acu-Link.com,2013-09-30 15:19:00,
2013-09-30 10:34:00,77.4,56.7,29.61,ENE,67,1.7,-999.0,49,-99.99,,,0.00,Acu-Link.com,2013-09-30 15:34:00,
2013-09-30 10:49:00,77.7,56.4,29.61,SSW,202,0.0,-999.0,48,-99.99,,,0.00,Acu-Link.com,2013-09-30 15:49:00,
2013-09-30 11:20:00,81.3,55.3,29.61,SSE,157,3.2,-999.0,41,-99.99,,,0.00,Acu-Link.com,2013-09-30 16:20:00,
2013-09-30 11:35:00,80.4,57.7,29.60,South,180,3.2,-999.0,46,-99.99,,,0.00,Acu-Link.com,2013-09-30 16:35:00,
2013-09-30 11:50:00,82.0,57.3,29.60,West,270,0.0,-999.0,43,-99.99,,,0.00,Acu-Link.com,2013-09-30 16:50:00,
2013-09-30 12:05:00,84.4,56.0,29.59,West,270,0.0,-999.0,38,-99.99,,,0.00,Acu-Link.com,2013-09-30 17:05:00,
2013-09-30 12:20:00,84.0,54.1,29.58,SSW,202,4.2,-999.0,36,-99.99,,,0.00,Acu-Link.com,2013-09-30 17:20:00,
2013-09-30 12:36:00,83.7,54.6,29.58,NW,315,1.1,-999.0,37,-99.99,,,0.00,Acu-Link.com,2013-09-30 17:36:00,
2013-09-30 12:51:00,85.8,55.0,29.58,East,90,3.7,-999.0,35,-99.99,,,0.00,Acu-Link.com,2013-09-30 17:51:00,
2013-09-30 13:06:00,86.7,54.9,29.57,SE,135,6.3,-999.0,34,-99.99,,,0.00,Acu-Link.com,2013-09-30 18:06:00,
2013-09-30 13:21:00,86.4,54.7,29.56,ESE,112,5.8,-999.0,34,-99.99,,,0.00,Acu-Link.com,2013-09-30 18:21:00,
2013-09-30 13:37:00,86.5,53.9,29.55,West,270,1.1,-999.0,33,-99.99,,,0.00,Acu-Link.com,2013-09-30 18:37:00,
2013-09-30 13:52:00,86.9,54.3,29.54,SE,135,4.2,-999.0,33,-99.99,,,0.00,Acu-Link.com,2013-09-30 18:52:00,
2013-09-30 14:07:00,88.3,54.7,29.53,SSW,202,1.7,-999.0,32,-99.99,,,0.00,Acu-Link.com,2013-09-30 19:07:00,
2013-09-30 14:23:00,86.7,53.3,29.52,ENE,67,2.2,-999.0,32,-99.99,,,0.00,Acu-Link.com,2013-09-30 19:23:00,
2013-09-30 14:38:00,87.6,53.2,29.52,SW,225,0.0,-999.0,31,-99.99,,,0.00,Acu-Link.com,2013-09-30 19:38:00,
2013-09-30 14:53:00,88.0,51.7,29.50,ESE,112,0.0,-999.0,29,-99.99,,,0.00,Acu-Link.com,2013-09-30 19:53:00,
2013-09-30 15:08:00,88.2,52.8,29.51,South,180,0.0,-999.0,30,-99.99,,,0.00,Acu-Link.com,2013-09-30 20:08:00,
2013-09-30 15:24:00,88.7,51.4,29.50,South,180,3.2,-999.0,28,-99.99,,,0.00,Acu-Link.com,2013-09-30 20:24:00,
2013-09-30 15:39:00,87.6,48.4,29.49,East,90,3.2,-999.0,26,-99.99,,,0.00,Acu-Link.com,2013-09-30 20:39:00,
2013-09-30 15:54:00,87.8,49.6,29.49,South,180,4.2,-999.0,27,-99.99,,,0.00,Acu-Link.com,2013-09-30 20:54:00,
2013-09-30 16:09:00,87.8,53.4,29.49,West,270,2.7,-999.0,31,-99.99,,,0.00,Acu-Link.com,2013-09-30 21:09:00,
2013-09-30 16:25:00,86.9,51.7,29.49,South,180,2.7,-999.0,30,-99.99,,,0.00,Acu-Link.com,2013-09-30 21:25:00,
2013-09-30 16:40:00,86.5,53.9,29.49,SSW,202,2.7,-999.0,33,-99.99,,,0.00,Acu-Link.com,2013-09-30 21:40:00,
2013-09-30 16:55:00,86.4,53.0,29.49,ESE,112,2.7,-999.0,32,-99.99,,,0.00,Acu-Link.com,2013-09-30 21:55:00,
2013-09-30 17:11:00,86.5,53.1,29.48,SE,135,4.7,-999.0,32,-99.99,,,0.00,Acu-Link.com,2013-09-30 22:11:00,
2013-09-30 17:26:00,86.4,53.9,29.49,SE,135,4.7,-999.0,33,-99.99,,,0.00,Acu-Link.com,2013-09-30 22:26:00,
2013-09-30 17:41:00,85.5,54.7,29.49,SSE,157,3.2,-999.0,35,-99.99,,,0.00,Acu-Link.com,2013-09-30 22:41:00,
2013-09-30 17:56:00,84.6,54.7,29.50,SSE,157,2.7,-999.0,36,-99.99,,,0.00,Acu-Link.com,2013-09-30 22:56:00,
2013-09-30 18:11:00,84.0,54.9,29.51,ENE,67,4.2,-999.0,37,-99.99,,,0.00,Acu-Link.com,2013-09-30 23:11:00,
2013-09-30 18:26:00,83.3,54.3,29.52,SSE,157,1.7,-999.0,37,-99.99,,,0.00,Acu-Link.com,2013-09-30 23:26:00,
2013-09-30 18:42:00,82.6,55.8,29.53,SSE,157,3.7,-999.0,40,-99.99,,,0.00,Acu-Link.com,2013-09-30 23:42:00,
2013-09-30 18:57:00,81.7,57.0,29.53,SSW,202,0.0,-999.0,43,-99.99,,,0.00,Acu-Link.com,2013-09-30 23:57:00,
2013-09-30 19:12:00,80.8,58.1,29.52,South,180,2.2,-999.0,46,-99.99,,,0.00,Acu-Link.com,2013-10-01 00:12:00,
2013-09-30 19:27:00,79.9,59.0,29.51,South,180,0.0,-999.0,49,-99.99,,,0.00,Acu-Link.com,2013-10-01 00:27:00,
2013-09-30 19:43:00,78.4,59.3,29.52,WSW,247,0.0,-999.0,52,-99.99,,,0.00,Acu-Link.com,2013-10-01 00:43:00,
2013-09-30 19:58:00,77.0,59.1,29.52,West,270,0.0,-999.0,54,-99.99,,,0.00,Acu-Link.com,2013-10-01 00:58:00,
2013-09-30 20:13:00,76.1,58.7,29.52,West,270,0.0,-999.0,55,-99.99,,,0.00,Acu-Link.com,2013-10-01 01:13:00,
2013-09-30 20:28:00,75.4,59.1,29.53,North,0,0.0,-999.0,57,-99.99,,,0.00,Acu-Link.com,2013-10-01 01:28:00,
2013-09-30 20:44:00,74.1,59.3,29.53,North,0,0.0,-999.0,60,-99.99,,,0.00,Acu-Link.com,2013-10-01 01:44:00,
2013-09-30 20:59:00,73.0,59.6,29.54,WSW,247,0.0,-999.0,63,-99.99,,,0.00,Acu-Link.com,2013-10-01 01:59:00,
2013-09-30 21:14:00,72.1,60.1,29.54,South,180,0.0,-999.0,66,-99.99,,,0.00,Acu-Link.com,2013-10-01 02:14:00,
2013-09-30 21:30:00,71.6,60.5,29.55,ESE,112,0.0,-999.0,68,-99.99,,,0.00,Acu-Link.com,2013-10-01 02:30:00,
2013-09-30 21:45:00,71.2,60.5,29.55,SSE,157,0.0,-999.0,69,-99.99,,,0.00,Acu-Link.com,2013-10-01 02:45:00,
2013-09-30 22:16:00,72.3,61.5,29.55,SSE,157,0.0,-999.0,69,-99.99,,,0.00,Acu-Link.com,2013-10-01 03:16:00,
2013-09-30 22:31:00,72.7,62.3,29.56,SE,135,0.0,-999.0,70,-99.99,,,0.00,Acu-Link.com,2013-10-01 03:31:00,
2013-09-30 22:46:00,71.8,61.9,29.56,South,180,0.0,-999.0,71,-99.99,,,0.00,Acu-Link.com,2013-10-01 03:46:00,
2013-09-30 23:01:00,71.6,62.5,29.55,SSE,157,0.0,-999.0,73,-99.99,,,0.00,Acu-Link.com,2013-10-01 04:01:00,
2013-09-30 23:16:00,70.5,62.2,29.55,SSE,157,0.0,-999.0,75,-99.99,,,0.00,Acu-Link.com,2013-10-01 04:16:00,
2013-09-30 23:32:00,70.7,62.4,29.55,SSE,157,1.7,-999.0,75,-99.99,,,0.00,Acu-Link.com,2013-10-01 04:32:00,
2013-09-30 23:47:00,71.4,63.1,29.54,SSE,157,0.0,-999.0,75,-99.99,,,0.00,Acu-Link.com,2013-10-01 04:47:00,